createdAt,value
2023-05-20T00:01:41.129Z,4.00
2023-05-20T00:04:08.482Z,4.18
2023-05-20T00:06:35.297Z,4.38
2023-05-20T00:09:02.106Z,4.18
2023-05-20T00:11:28.810Z,4.30
2023-05-20T00:13:55.617Z,4.30
2023-05-20T00:16:22.300Z,3.92
2023-05-20T00:18:49.011Z,3.92
2023-05-20T00:21:15.791Z,4.20
2023-05-20T00:23:42.603Z,4.13
2023-05-20T00:26:09.318Z,4.32
2023-05-20T00:28:35.979Z,4.07
2023-05-20T00:31:02.764Z,4.10
2023-05-20T00:33:29.371Z,4.30
2023-05-20T00:35:56.037Z,4.32
2023-05-20T00:38:22.740Z,4.40
2023-05-20T00:40:49.438Z,4.68
2023-05-20T00:43:16.148Z,4.30
2023-05-20T00:45:42.930Z,4.20
2023-05-20T00:48:09.931Z,4.30
2023-05-20T00:50:36.725Z,4.30
2023-05-20T00:53:04.036Z,4.80
2023-05-20T00:55:30.936Z,4.32
2023-05-20T00:57:57.897Z,4.65
2023-05-20T01:00:24.580Z,4.75
2023-05-20T01:02:51.736Z,4.68
2023-05-20T01:05:18.505Z,4.97
2023-05-20T01:07:45.242Z,5.00
2023-05-20T01:10:12.016Z,4.10
2023-05-20T01:13:01.695Z,4.43
2023-05-20T01:15:30.239Z,4.80
2023-05-20T01:18:01.593Z,4.87
2023-05-20T01:20:32.664Z,4.40
2023-05-20T01:22:59.549Z,5.05
2023-05-20T01:25:26.571Z,4.85
2023-05-20T01:27:55.855Z,5.05
2023-05-20T01:30:24.053Z,5.40
2023-05-20T01:32:59.998Z,5.40
2023-05-20T01:35:27.562Z,5.88
2023-05-20T01:37:56.052Z,5.03
2023-05-20T01:40:24.694Z,5.87
2023-05-20T01:42:55.283Z,6.47
2023-05-20T01:45:24.026Z,5.63
2023-05-20T01:47:50.862Z,5.65
2023-05-20T01:50:17.697Z,6.60
2023-05-20T01:52:44.424Z,6.53
2023-05-20T01:55:11.163Z,6.45
2023-05-20T01:57:37.874Z,7.45
2023-05-20T02:00:06.267Z,6.25
2023-05-20T02:02:33.109Z,6.43
2023-05-20T02:04:59.880Z,6.60
2023-05-20T02:07:26.534Z,6.72
2023-05-20T02:09:53.183Z,6.10
2023-05-20T02:12:19.905Z,6.65
2023-05-20T02:14:48.011Z,6.15
2023-05-20T02:17:16.617Z,6.30
2023-05-20T02:19:47.277Z,6.07
2023-05-20T02:22:14.640Z,6.30
2023-05-20T02:24:43.264Z,6.68
2023-05-20T02:27:10.118Z,6.10
2023-05-20T02:29:37.050Z,6.22
2023-05-20T02:32:03.950Z,6.97
2023-05-20T02:34:32.960Z,7.10
2023-05-20T02:36:59.861Z,8.13
2023-05-20T02:39:26.640Z,7.20
2023-05-20T02:41:53.268Z,7.88
2023-05-20T02:44:20.310Z,6.90
2023-05-20T02:46:47.088Z,7.28
2023-05-20T02:49:13.724Z,7.30
2023-05-20T02:51:41.024Z,8.20
2023-05-20T02:54:07.687Z,7.95
2023-05-20T02:56:34.441Z,7.38
2023-05-20T02:59:01.602Z,8.10
2023-05-20T03:01:29.230Z,7.93
2023-05-20T03:03:56.024Z,7.93
2023-05-20T03:06:26.346Z,8.70
2023-05-20T03:08:52.954Z,8.68
2023-05-20T03:11:19.609Z,8.45
2023-05-20T03:13:46.182Z,7.75
2023-05-20T03:16:13.344Z,7.93
2023-05-20T03:18:40.108Z,7.80
2023-05-20T03:21:06.809Z,8.25
2023-05-20T03:23:33.460Z,7.22
2023-05-20T03:26:00.158Z,8.38
2023-05-20T03:28:26.874Z,8.15
2023-05-20T03:30:53.618Z,7.88
2023-05-20T03:33:20.720Z,7.93
2023-05-20T03:35:47.404Z,7.22
2023-05-20T03:38:14.055Z,6.95
2023-05-20T03:40:40.902Z,7.70
2023-05-20T03:43:07.615Z,8.15
2023-05-20T03:45:34.725Z,7.82
2023-05-20T03:48:03.584Z,7.32
2023-05-20T03:50:31.242Z,6.65
2023-05-20T03:52:58.071Z,7.20
2023-05-20T03:55:25.120Z,7.15
2023-05-20T03:57:51.780Z,6.78
2023-05-20T04:00:18.715Z,7.00
2023-05-20T04:02:45.781Z,7.15
2023-05-20T04:05:12.693Z,7.97
2023-05-20T04:07:39.400Z,7.20
2023-05-20T04:10:06.968Z,7.65
2023-05-20T04:12:33.982Z,7.95
2023-05-20T04:15:01.759Z,8.07
2023-05-20T04:17:31.696Z,9.00
2023-05-20T04:19:59.967Z,8.13
2023-05-20T04:22:27.507Z,7.57
2023-05-20T04:24:54.240Z,8.63
2023-05-20T04:27:21.754Z,7.18
2023-05-20T04:29:48.573Z,7.50
2023-05-20T04:32:18.847Z,7.40
2023-05-20T04:34:46.808Z,8.30
2023-05-20T04:37:14.077Z,7.85
2023-05-20T04:39:40.821Z,8.43
2023-05-20T04:42:07.649Z,9.07
2023-05-20T04:44:34.531Z,9.02
2023-05-20T04:47:01.407Z,8.73
2023-05-20T04:49:29.984Z,8.60
2023-05-20T04:51:56.632Z,8.70
2023-05-20T04:54:23.431Z,7.97
2023-05-20T04:56:51.103Z,10.55
2023-05-20T04:59:17.982Z,10.25
2023-05-20T05:01:44.720Z,9.35
2023-05-20T05:04:11.692Z,9.73
2023-05-20T05:06:38.494Z,9.57
2023-05-20T05:09:05.181Z,8.93
2023-05-20T05:11:31.846Z,10.27
2023-05-20T05:13:58.537Z,10.40
2023-05-20T05:16:25.476Z,9.25
2023-05-20T05:18:52.244Z,9.82
2023-05-20T05:21:18.902Z,9.20
2023-05-20T05:23:46.092Z,9.85
2023-05-20T05:26:12.756Z,10.20
2023-05-20T05:28:42.041Z,9.73
2023-05-20T05:31:08.795Z,9.55
2023-05-20T05:33:35.541Z,9.75
2023-05-20T05:36:02.716Z,10.85
2023-05-20T05:38:29.405Z,10.10
2023-05-20T05:40:56.355Z,11.10
2023-05-20T05:43:23.075Z,10.32
2023-05-20T05:45:49.756Z,9.80
2023-05-20T05:48:16.464Z,9.73
2023-05-20T05:50:46.996Z,11.07
2023-05-20T05:53:13.722Z,10.80
2023-05-20T05:55:40.383Z,10.88
2023-05-20T05:58:07.228Z,10.63
2023-05-20T06:00:33.974Z,11.70
2023-05-20T06:03:00.893Z,11.18
2023-05-20T06:05:29.276Z,11.93
2023-05-20T06:07:56.657Z,11.77
2023-05-20T06:10:23.491Z,10.60
2023-05-20T06:12:50.295Z,11.30
2023-05-20T06:15:16.975Z,10.85
2023-05-20T06:17:43.622Z,13.18
2023-05-20T06:20:10.640Z,13.15
2023-05-20T06:22:37.582Z,13.55
2023-05-20T06:25:04.463Z,13.60
2023-05-20T06:27:31.181Z,15.30
2023-05-20T06:29:57.841Z,16.35
2023-05-20T06:32:24.627Z,13.80
2023-05-20T06:34:51.486Z,14.73
2023-05-20T06:37:18.286Z,16.30
2023-05-20T06:39:46.930Z,17.08
2023-05-20T06:42:13.591Z,16.70
2023-05-20T06:44:40.212Z,16.27
2023-05-20T06:47:06.869Z,16.98
2023-05-20T06:49:33.578Z,14.40
2023-05-20T06:52:00.233Z,14.30
2023-05-20T06:54:26.864Z,18.60
2023-05-20T06:56:53.587Z,15.45
2023-05-20T06:59:20.237Z,16.23
2023-05-20T07:01:46.860Z,17.80
2023-05-20T07:04:13.557Z,16.58
2023-05-20T07:06:40.182Z,17.27
2023-05-20T07:09:07.148Z,18.02
2023-05-20T07:11:33.757Z,18.05
2023-05-20T07:14:00.532Z,18.70
2023-05-20T07:16:27.235Z,19.80
2023-05-20T07:18:54.019Z,19.50
2023-05-20T07:21:20.737Z,21.50
2023-05-20T07:23:47.393Z,22.00
2023-05-20T07:26:14.052Z,20.77
2023-05-20T07:28:40.856Z,22.45
2023-05-20T07:31:07.472Z,19.25
2023-05-20T07:33:34.219Z,20.02
2023-05-20T07:36:00.892Z,20.08
2023-05-20T07:38:27.564Z,20.15
2023-05-20T07:40:54.189Z,21.50
2023-05-20T07:43:21.011Z,19.58
2023-05-20T07:45:47.708Z,17.95
2023-05-20T07:48:14.541Z,19.98
2023-05-20T07:50:41.528Z,20.80
2023-05-20T07:53:08.410Z,19.00
2023-05-20T07:55:37.029Z,22.05
2023-05-20T07:58:04.290Z,20.38
2023-05-20T08:00:31.547Z,18.98
2023-05-20T08:02:58.410Z,19.95
2023-05-20T08:05:25.161Z,20.30
2023-05-20T08:07:51.874Z,19.50
2023-05-20T08:10:18.619Z,18.42
2023-05-20T08:12:46.610Z,20.50
2023-05-20T08:15:13.334Z,19.35
2023-05-20T08:17:40.066Z,20.92
2023-05-20T08:20:08.338Z,20.00
2023-05-20T08:22:36.191Z,18.88
2023-05-20T08:25:02.980Z,19.63
2023-05-20T08:27:29.650Z,18.77
2023-05-20T08:29:57.246Z,17.75
2023-05-20T08:32:24.853Z,18.55
2023-05-20T08:34:51.569Z,18.25
2023-05-20T08:37:18.294Z,17.00
2023-05-20T08:39:46.741Z,17.00
2023-05-20T08:42:13.858Z,16.52
2023-05-20T08:44:41.597Z,17.92
2023-05-20T08:47:10.414Z,17.92
2023-05-20T08:49:37.831Z,17.67
2023-05-20T08:52:05.535Z,17.55
2023-05-20T08:54:45.368Z,17.70
2023-05-20T08:57:14.113Z,18.13
2023-05-20T08:59:45.408Z,17.40
2023-05-20T09:02:12.385Z,16.45
2023-05-20T09:04:39.457Z,17.75
2023-05-20T09:07:06.312Z,16.33
2023-05-20T09:09:35.104Z,16.58
2023-05-20T09:12:03.252Z,15.48
2023-05-20T09:14:31.281Z,16.55
2023-05-20T09:16:58.116Z,16.42
2023-05-20T09:19:25.604Z,15.85
2023-05-20T09:21:55.625Z,17.17
2023-05-20T09:24:26.966Z,16.13
2023-05-20T09:26:53.837Z,16.25
2023-05-20T09:29:21.928Z,16.38
2023-05-20T09:31:50.053Z,16.55
2023-05-20T09:34:17.593Z,14.85
2023-05-20T09:36:45.334Z,15.73
2023-05-20T09:39:17.043Z,16.20
2023-05-20T09:41:57.959Z,15.63
2023-05-20T09:44:25.144Z,15.52
2023-05-20T09:46:53.345Z,14.82
2023-05-20T09:49:21.582Z,15.23
2023-05-20T09:51:48.638Z,13.15
2023-05-20T09:54:18.128Z,14.15
2023-05-20T09:59:12.934Z,14.75
2023-05-20T10:01:39.661Z,13.90
2023-05-20T10:04:09.199Z,14.27
2023-05-20T10:06:38.815Z,14.40
2023-05-20T10:09:19.964Z,13.93
2023-05-20T10:12:09.734Z,13.27
2023-05-20T10:14:43.939Z,15.13
2023-05-20T10:17:14.855Z,13.82
2023-05-20T10:19:41.739Z,14.45
2023-05-20T10:22:10.340Z,15.02
2023-05-20T10:24:43.051Z,14.93
2023-05-20T10:27:18.269Z,14.68
2023-05-20T10:29:52.384Z,14.32
2023-05-20T10:32:33.429Z,15.07
2023-05-20T10:35:05.952Z,13.98
2023-05-20T10:37:40.667Z,14.38
2023-05-20T10:40:12.669Z,14.35
2023-05-20T10:42:40.296Z,14.07
2023-05-20T10:45:08.338Z,13.15
2023-05-20T10:47:35.834Z,13.38
2023-05-20T10:50:04.998Z,12.65
2023-05-20T10:52:39.172Z,13.25
2023-05-20T10:55:06.406Z,13.57
2023-05-20T10:57:34.506Z,13.27
2023-05-20T11:00:01.362Z,13.63
2023-05-20T11:02:29.122Z,13.90
2023-05-20T11:04:59.133Z,14.48
2023-05-20T11:07:29.954Z,13.75
2023-05-20T11:09:57.560Z,13.63
2023-05-20T11:12:25.928Z,14.77
2023-05-20T11:14:53.008Z,14.73
2023-05-20T11:17:20.264Z,14.85
2023-05-20T11:19:48.380Z,15.68
2023-05-20T11:22:15.060Z,14.23
2023-05-20T11:24:41.708Z,13.43
2023-05-20T11:27:08.472Z,14.23
2023-05-20T11:29:35.395Z,15.07
2023-05-20T11:32:02.354Z,15.35
2023-05-20T11:34:36.839Z,14.77
2023-05-20T11:37:07.960Z,14.35
2023-05-20T11:39:34.733Z,15.20
2023-05-20T11:42:01.416Z,15.18
2023-05-20T11:44:28.204Z,15.82
2023-05-20T11:47:03.744Z,14.52
2023-05-20T11:49:31.214Z,15.60
2023-05-20T11:51:58.205Z,16.13
2023-05-20T11:54:24.903Z,14.93
2023-05-20T11:56:51.723Z,15.40
2023-05-20T11:59:18.492Z,14.93
2023-05-20T12:01:45.741Z,16.00
2023-05-20T12:04:16.586Z,16.85
2023-05-20T12:06:44.131Z,16.20
2023-05-20T12:09:11.851Z,17.10
2023-05-20T12:11:41.305Z,15.93
2023-05-20T12:14:09.061Z,16.83
2023-05-20T12:16:36.777Z,16.73
2023-05-20T12:19:04.240Z,16.45
2023-05-20T12:21:31.575Z,16.35
2023-05-20T12:24:01.257Z,17.08
2023-05-20T12:26:29.682Z,17.33
2023-05-20T12:28:56.603Z,17.57
2023-05-20T12:31:23.632Z,15.88
2023-05-20T12:33:50.835Z,15.50
2023-05-20T12:36:17.651Z,16.05
2023-05-20T12:38:44.501Z,14.98
2023-05-20T12:41:11.325Z,14.38
2023-05-20T12:43:38.108Z,16.75
2023-05-20T12:46:05.135Z,15.80
2023-05-20T12:48:32.044Z,16.67
2023-05-20T12:50:58.809Z,17.40
2023-05-20T12:53:25.569Z,17.13
2023-05-20T12:55:52.550Z,19.05
2023-05-20T12:58:19.287Z,16.98
2023-05-20T13:00:46.128Z,17.95
2023-05-20T13:03:12.788Z,17.20
2023-05-20T13:05:39.568Z,17.00
2023-05-20T13:08:06.355Z,16.90
2023-05-20T13:10:33.652Z,16.83
2023-05-20T13:13:00.446Z,17.10
2023-05-20T13:15:27.102Z,17.15
2023-05-20T13:17:54.439Z,16.23
2023-05-20T13:20:21.632Z,16.48
2023-05-20T13:22:50.188Z,16.83
2023-05-20T13:25:17.171Z,16.57
2023-05-20T13:27:43.945Z,17.60
2023-05-20T13:30:10.966Z,15.05
2023-05-20T13:32:37.752Z,15.30
2023-05-20T13:35:05.053Z,16.65
2023-05-20T13:37:31.800Z,14.60
2023-05-20T13:39:58.528Z,14.23
2023-05-20T13:42:25.147Z,14.05
2023-05-20T13:44:51.788Z,15.75
2023-05-20T13:47:18.476Z,15.43
2023-05-20T13:49:45.182Z,15.68
2023-05-20T13:52:11.830Z,15.15
2023-05-20T13:54:38.554Z,17.70
2023-05-20T13:57:08.028Z,15.25
2023-05-20T13:59:35.211Z,15.60
2023-05-20T14:02:02.470Z,16.35
2023-05-20T14:04:31.339Z,16.90
2023-05-20T14:06:59.312Z,17.25
2023-05-20T14:09:26.462Z,15.60
2023-05-20T14:11:53.213Z,16.45
2023-05-20T14:14:19.862Z,16.70
2023-05-20T14:16:46.617Z,16.77
2023-05-20T14:19:13.330Z,16.63
2023-05-20T14:21:40.132Z,16.75
2023-05-20T14:24:07.052Z,16.40
2023-05-20T14:26:34.336Z,15.50
2023-05-20T14:29:01.226Z,15.75
2023-05-20T14:31:27.969Z,16.00
2023-05-20T14:33:54.654Z,15.05
2023-05-20T14:36:21.339Z,16.63
2023-05-20T14:38:49.620Z,16.08
2023-05-20T14:41:16.590Z,15.60
2023-05-20T14:43:43.260Z,16.48
2023-05-20T14:46:10.648Z,16.80
2023-05-20T14:48:37.474Z,16.30
2023-05-20T14:51:04.347Z,15.18
2023-05-20T14:53:31.045Z,15.27
2023-05-20T14:55:57.886Z,16.02
2023-05-20T14:58:24.555Z,14.80
2023-05-20T15:00:53.184Z,16.40
2023-05-20T15:03:20.472Z,15.85
2023-05-20T15:05:47.243Z,15.48
2023-05-20T15:08:13.882Z,16.30
2023-05-20T15:10:40.616Z,15.15
2023-05-20T15:13:07.468Z,15.82
2023-05-20T15:15:34.257Z,15.07
2023-05-20T15:18:01.272Z,15.68
2023-05-20T15:20:27.955Z,15.50
2023-05-20T15:22:54.697Z,15.10
2023-05-20T15:25:21.393Z,15.18
2023-05-20T15:27:48.317Z,15.63
2023-05-20T15:30:15.699Z,15.55
2023-05-20T15:32:42.925Z,14.20
2023-05-20T15:35:09.942Z,15.23
2023-05-20T15:37:36.605Z,14.52
2023-05-20T15:40:04.531Z,14.35
2023-05-20T15:42:31.910Z,14.98
2023-05-20T15:44:58.678Z,13.15
2023-05-20T15:47:25.966Z,13.48
2023-05-20T15:49:54.495Z,14.23
2023-05-20T15:52:21.212Z,14.83
2023-05-20T15:54:47.870Z,12.98
2023-05-20T15:57:14.512Z,13.68
2023-05-20T15:59:41.468Z,12.90
2023-05-20T16:02:08.130Z,13.73
2023-05-20T16:04:34.877Z,14.60
2023-05-20T16:07:01.928Z,14.45
2023-05-20T16:09:28.565Z,14.23
2023-05-20T16:11:56.123Z,14.63
2023-05-20T16:14:22.767Z,13.48
2023-05-20T16:16:49.535Z,13.82
2023-05-20T16:19:16.259Z,13.23
2023-05-20T16:21:43.017Z,12.70
2023-05-20T16:24:09.912Z,13.30
2023-05-20T16:26:36.695Z,13.63
2023-05-20T16:29:03.601Z,13.27
2023-05-20T16:31:30.230Z,12.80
2023-05-20T16:33:57.544Z,13.43
2023-05-20T16:36:24.448Z,12.55
2023-05-20T16:38:51.086Z,13.35
2023-05-20T16:41:17.835Z,12.45
2023-05-20T16:43:44.627Z,12.68
2023-05-20T16:46:12.836Z,12.27
2023-05-20T16:48:39.892Z,13.13
2023-05-20T16:51:06.874Z,11.77
2023-05-20T16:53:33.553Z,12.40
2023-05-20T16:56:00.332Z,14.50
2023-05-20T16:58:26.981Z,15.07
2023-05-20T17:00:55.106Z,13.45
2023-05-20T17:03:22.101Z,14.35
2023-05-20T17:05:48.846Z,13.52
2023-05-20T17:08:16.109Z,15.27
2023-05-20T17:10:42.782Z,13.98
2023-05-20T17:13:09.515Z,15.15
2023-05-20T17:15:37.327Z,14.77
2023-05-20T17:18:04.415Z,12.90
2023-05-20T17:20:31.627Z,14.73
2023-05-20T17:22:58.543Z,14.98
2023-05-20T17:25:25.564Z,14.38
2023-05-20T17:27:52.289Z,16.23
2023-05-20T17:30:19.073Z,14.85
2023-05-20T17:32:45.963Z,14.18
2023-05-20T17:35:12.694Z,14.65
2023-05-20T17:37:39.509Z,14.20
2023-05-20T17:40:06.741Z,15.85
2023-05-20T17:42:33.810Z,15.15
2023-05-20T17:45:00.474Z,14.70
2023-05-20T17:47:27.109Z,14.27
2023-05-20T17:49:53.728Z,16.70
2023-05-20T17:52:20.376Z,15.77
2023-05-20T17:54:47.011Z,15.20
2023-05-20T17:57:13.810Z,15.57
2023-05-20T17:59:42.029Z,15.93
2023-05-20T18:02:09.054Z,15.38
2023-05-20T18:04:35.891Z,15.52
2023-05-20T18:07:04.121Z,14.10
2023-05-20T18:09:31.135Z,22.05
2023-05-20T18:11:57.840Z,21.15
2023-05-20T18:14:26.621Z,15.60
2023-05-20T18:16:57.544Z,25.45
2023-05-20T18:19:24.787Z,18.33
2023-05-20T18:21:51.874Z,14.48
2023-05-20T18:24:20.457Z,15.10
2023-05-20T18:26:47.374Z,14.25
2023-05-20T18:29:14.108Z,18.55
2023-05-20T18:31:43.373Z,17.08
2023-05-20T18:34:10.791Z,15.60
2023-05-20T18:36:37.758Z,13.55
2023-05-20T18:39:04.854Z,13.90
2023-05-20T18:41:43.063Z,13.93
2023-05-20T18:44:14.750Z,14.10
2023-05-20T18:46:41.741Z,14.07
2023-05-20T18:49:10.334Z,13.50
2023-05-20T18:51:40.413Z,13.57
2023-05-20T18:54:07.471Z,14.93
2023-05-20T18:56:34.439Z,14.25
2023-05-20T18:59:01.317Z,13.88
2023-05-20T19:01:28.141Z,13.73
2023-05-20T19:03:54.805Z,14.93
2023-05-20T19:06:22.112Z,13.52
2023-05-20T19:08:49.626Z,13.05
2023-05-20T19:11:16.865Z,15.68
2023-05-20T19:13:43.584Z,15.55
2023-05-20T19:16:10.685Z,14.57
2023-05-20T19:18:37.392Z,14.52
2023-05-20T19:21:04.417Z,14.13
2023-05-20T19:23:32.435Z,15.07
2023-05-20T19:25:59.204Z,14.57
2023-05-20T19:28:25.950Z,13.43
2023-05-20T19:30:52.997Z,13.80
2023-05-20T19:33:20.908Z,13.98
2023-05-20T19:35:47.535Z,15.40
2023-05-20T19:38:14.454Z,14.48
2023-05-20T19:40:41.151Z,13.70
2023-05-20T19:43:07.838Z,13.57
2023-05-20T19:45:36.602Z,13.98
2023-05-20T19:48:04.405Z,14.52
2023-05-20T19:50:31.632Z,14.98
2023-05-20T19:52:58.261Z,14.10
2023-05-20T19:55:24.946Z,13.75
2023-05-20T19:57:54.338Z,13.93
2023-05-20T20:02:49.786Z,13.82
2023-05-20T20:05:16.598Z,14.30
2023-05-20T20:07:43.300Z,14.55
2023-05-20T20:10:10.726Z,13.43
2023-05-20T20:12:37.452Z,13.50
2023-05-20T20:15:04.484Z,14.20
2023-05-20T20:17:33.600Z,14.90
2023-05-20T20:22:27.714Z,16.02
2023-05-20T20:24:54.345Z,15.48
2023-05-20T20:27:23.648Z,15.40
2023-05-20T20:32:17.062Z,14.20
2023-05-20T20:34:43.849Z,14.80
2023-05-20T20:37:14.621Z,14.93
2023-05-20T20:39:41.290Z,15.13
2023-05-20T20:42:07.894Z,16.50
2023-05-20T20:44:34.605Z,14.57
2023-05-20T20:47:04.050Z,14.57
2023-05-20T20:49:32.194Z,16.52
2023-05-20T20:51:59.224Z,16.30
2023-05-20T20:54:26.526Z,14.73
2023-05-20T20:56:56.570Z,16.65
2023-05-20T20:59:26.989Z,15.30
2023-05-20T21:01:54.749Z,15.43
2023-05-20T21:04:21.622Z,14.93
2023-05-20T21:06:48.388Z,14.95
2023-05-20T21:09:15.607Z,15.43
2023-05-20T21:11:42.581Z,14.95
2023-05-20T21:14:09.700Z,15.40
2023-05-20T21:16:36.431Z,15.32
2023-05-20T21:19:03.377Z,15.23
2023-05-20T21:21:30.934Z,15.20
2023-05-20T21:23:57.957Z,15.18
2023-05-20T21:26:25.747Z,15.20
2023-05-20T21:28:52.836Z,15.15
2023-05-20T21:31:19.700Z,14.90
2023-05-20T21:33:46.643Z,15.02
2023-05-20T21:36:13.472Z,15.20
2023-05-20T21:38:40.165Z,15.70
2023-05-20T21:41:07.048Z,21.23
2023-05-20T21:43:33.729Z,18.25
2023-05-20T21:46:00.597Z,17.17
2023-05-20T21:48:27.288Z,15.68
2023-05-20T21:50:53.990Z,14.95
2023-05-20T21:53:20.679Z,13.88
2023-05-20T21:55:47.372Z,14.80
2023-05-20T21:58:14.101Z,15.27
2023-05-20T22:00:41.100Z,16.00
2023-05-20T22:03:07.875Z,16.35
2023-05-20T22:05:34.888Z,16.05
2023-05-20T22:08:01.947Z,15.55
2023-05-20T22:10:28.762Z,14.55
2023-05-20T22:12:55.678Z,15.30
2023-05-20T22:15:23.077Z,16.20
2023-05-20T22:17:49.819Z,15.93
2023-05-20T22:20:16.675Z,16.30
2023-05-20T22:22:43.356Z,15.77
2023-05-20T22:25:10.912Z,16.27
2023-05-20T22:27:38.718Z,17.00
2023-05-20T22:30:08.247Z,17.02
2023-05-20T22:32:34.998Z,16.83
2023-05-20T22:35:01.705Z,16.45
2023-05-20T22:37:28.962Z,17.25
2023-05-20T22:39:56.373Z,17.05
2023-05-20T22:42:22.993Z,16.55
2023-05-20T22:44:50.091Z,17.00
2023-05-20T22:47:16.719Z,16.75
2023-05-20T22:49:43.401Z,16.38
2023-05-20T22:52:10.223Z,17.33
2023-05-20T22:54:36.848Z,16.55
2023-05-20T22:57:03.675Z,16.05
2023-05-20T22:59:33.056Z,16.85
2023-05-20T23:04:26.590Z,17.13
2023-05-20T23:06:57.872Z,16.35
2023-05-20T23:09:26.056Z,15.15
2023-05-20T23:11:52.766Z,16.00
2023-05-20T23:14:20.112Z,15.38
2023-05-20T23:16:47.020Z,15.35
2023-05-20T23:19:13.818Z,18.05
2023-05-20T23:21:40.720Z,19.42
2023-05-20T23:24:07.399Z,18.15
2023-05-20T23:26:34.651Z,18.25
2023-05-20T23:29:01.594Z,17.42
2023-05-20T23:31:30.182Z,18.00
2023-05-20T23:34:01.108Z,17.90
2023-05-20T23:36:29.203Z,16.88
2023-05-20T23:38:56.763Z,17.50
2023-05-20T23:41:23.799Z,17.83
2023-05-20T23:43:50.794Z,19.27
2023-05-20T23:46:18.612Z,17.85
2023-05-20T23:48:48.284Z,17.08
2023-05-20T23:51:16.430Z,17.85
2023-05-20T23:53:43.831Z,17.35
2023-05-20T23:56:10.559Z,18.50
2023-05-20T23:58:37.260Z,16.17
